createdAt,value
2022-08-17T00:00:34.221Z,86.90
2022-08-17T00:03:17.994Z,86.90
2022-08-17T00:06:12.090Z,86.90
2022-08-17T00:08:52.377Z,86.80
2022-08-17T00:11:29.001Z,86.60
2022-08-17T00:13:59.757Z,86.80
2022-08-17T00:16:53.423Z,86.80
2022-08-17T00:19:23.300Z,87.00
2022-08-17T00:22:30.809Z,87.00
2022-08-17T00:24:39.395Z,87.10
2022-08-17T00:27:06.283Z,87.20
2022-08-17T00:29:33.180Z,87.50
2022-08-17T00:33:15.478Z,87.50
2022-08-17T00:34:49.127Z,87.90
2022-08-17T00:37:16.239Z,87.90
2022-08-17T00:39:44.303Z,88.00
2022-08-17T00:42:15.717Z,88.10
2022-08-17T00:44:42.710Z,88.20
2022-08-17T00:47:09.658Z,88.40
2022-08-17T00:49:36.641Z,88.30
2022-08-17T00:52:10.833Z,88.30
2022-08-17T00:54:42.228Z,88.10
2022-08-17T00:57:15.020Z,87.80
2022-08-17T00:59:47.214Z,87.70
2022-08-17T01:02:40.454Z,87.70
2022-08-17T01:05:15.337Z,87.60
2022-08-17T01:07:43.445Z,87.60
2022-08-17T01:10:59.967Z,87.50
2022-08-17T01:13:04.601Z,87.40
2022-08-17T01:15:33.501Z,87.40
2022-08-17T01:18:00.754Z,87.40
2022-08-17T01:20:28.018Z,87.40
2022-08-17T01:22:54.997Z,87.30
2022-08-17T01:25:22.641Z,86.90
2022-08-17T01:27:50.092Z,86.00
2022-08-17T01:30:56.923Z,85.70
2022-08-17T01:33:05.872Z,85.80
2022-08-17T01:35:32.662Z,86.30
2022-08-17T01:37:59.647Z,87.50
2022-08-17T01:40:35.888Z,88.30
2022-08-17T01:43:22.886Z,88.90
2022-08-17T01:46:03.002Z,90.00
2022-08-17T01:48:36.522Z,90.60
2022-08-17T01:51:04.068Z,90.80
2022-08-17T01:53:41.024Z,91.10
2022-08-17T01:56:14.565Z,91.30
2022-08-17T01:58:42.949Z,91.50
2022-08-17T02:01:10.826Z,91.70
2022-08-17T02:03:38.634Z,92.00
2022-08-17T02:06:11.965Z,92.50
2022-08-17T02:09:03.296Z,92.50
2022-08-17T02:11:35.113Z,92.60
2022-08-17T02:14:04.100Z,92.80
2022-08-17T02:16:38.306Z,92.90
2022-08-17T02:19:08.757Z,92.90
2022-08-17T02:21:37.616Z,92.70
2022-08-17T02:24:08.206Z,92.50
2022-08-17T02:26:36.165Z,92.60
2022-08-17T02:29:04.163Z,92.50
2022-08-17T02:31:31.726Z,92.50
2022-08-17T02:34:03.507Z,92.50
2022-08-17T02:36:34.285Z,92.80
2022-08-17T02:39:03.370Z,93.00
2022-08-17T02:41:30.566Z,93.20
2022-08-17T02:43:57.697Z,93.40
2022-08-17T02:46:24.727Z,93.50
2022-08-17T02:48:52.119Z,93.70
2022-08-17T02:51:19.144Z,93.80
2022-08-17T02:53:46.924Z,93.80
2022-08-17T02:56:14.065Z,93.90
2022-08-17T02:58:41.015Z,93.60
2022-08-17T03:01:09.918Z,93.80
2022-08-17T03:03:37.927Z,94.20
2022-08-17T03:06:06.356Z,93.30
2022-08-17T03:08:34.622Z,93.30
2022-08-17T03:11:01.780Z,92.90
2022-08-17T03:13:29.228Z,92.80
2022-08-17T03:15:56.610Z,92.30
2022-08-17T03:18:25.518Z,91.20
2022-08-17T03:21:01.251Z,91.60
2022-08-17T03:23:29.715Z,91.20
2022-08-17T03:25:57.793Z,91.00
2022-08-17T03:28:25.710Z,90.90
2022-08-17T03:30:53.131Z,90.90
2022-08-17T03:33:20.391Z,91.00
2022-08-17T03:35:47.785Z,90.90
2022-08-17T03:38:17.153Z,90.90
2022-08-17T03:40:56.792Z,91.00
2022-08-17T03:43:30.868Z,90.90
2022-08-17T03:46:28.897Z,91.20
2022-08-17T03:49:25.009Z,91.20
2022-08-17T03:52:11.980Z,91.40
2022-08-17T03:54:58.405Z,91.50
2022-08-17T03:57:26.227Z,91.80
2022-08-17T03:59:54.411Z,91.90
2022-08-17T07:33:41.040Z,80.20
2022-08-17T07:36:29.602Z,81.30
2022-08-17T07:38:58.348Z,81.40
2022-08-17T07:41:25.435Z,81.50
2022-08-17T07:44:16.755Z,81.00
2022-08-17T07:47:11.082Z,80.80
2022-08-17T07:49:41.788Z,80.70
2022-08-17T07:52:51.009Z,81.70
2022-08-17T07:55:31.938Z,81.10
2022-08-17T07:57:59.398Z,80.90
2022-08-17T08:00:32.389Z,81.00
2022-08-17T08:03:14.797Z,81.50
2022-08-17T08:05:54.315Z,81.50
2022-08-17T08:08:43.155Z,82.00
2022-08-17T08:11:15.455Z,82.90
2022-08-17T08:13:45.661Z,82.70
2022-08-17T08:16:24.603Z,82.50
2022-08-17T08:18:57.138Z,82.50
2022-08-17T08:21:38.568Z,82.30
2022-08-17T08:24:38.787Z,82.40
2022-08-17T08:27:20.693Z,82.60
2022-08-17T08:29:55.229Z,82.30
2022-08-17T08:32:47.989Z,81.40
2022-08-17T08:35:17.074Z,81.40
2022-08-17T08:38:14.714Z,80.70
2022-08-17T08:40:53.541Z,80.30
2022-08-17T08:43:52.843Z,80.30
2022-08-17T08:46:25.827Z,80.10
2022-08-17T08:49:10.213Z,80.20
2022-08-17T08:51:58.223Z,79.70
2022-08-17T08:54:48.296Z,79.60
2022-08-17T08:57:32.777Z,78.60
2022-08-17T09:00:15.514Z,78.70
2022-08-17T09:03:42.757Z,78.30
2022-08-17T09:06:39.438Z,78.50
2022-08-17T09:09:27.359Z,77.90
2022-08-17T09:12:14.131Z,77.60
2022-08-17T09:14:51.592Z,76.10
2022-08-17T09:17:25.419Z,76.00
2022-08-17T09:20:04.308Z,75.50
2022-08-17T09:22:37.668Z,74.50
2022-08-17T09:25:29.028Z,74.30
2022-08-17T09:28:03.977Z,73.30
2022-08-17T09:30:55.259Z,73.30
2022-08-17T09:33:27.064Z,73.90
2022-08-17T09:36:05.496Z,74.40
2022-08-17T09:38:58.732Z,73.20
2022-08-17T09:41:37.612Z,70.00
2022-08-17T09:44:24.541Z,69.80
2022-08-17T09:47:10.246Z,67.80
2022-08-17T09:49:53.749Z,67.50
2022-08-17T09:52:25.904Z,67.00
2022-08-17T09:54:55.069Z,67.20
2022-08-17T09:57:47.385Z,67.50
2022-08-17T10:00:30.799Z,67.60
2022-08-17T10:03:28.284Z,67.90
2022-08-17T10:06:13.385Z,68.20
2022-08-17T10:08:46.191Z,69.50
2022-08-17T10:11:51.470Z,69.10
2022-08-17T10:14:53.365Z,69.30
2022-08-17T10:17:33.118Z,70.10
2022-08-17T10:20:10.301Z,70.80
2022-08-17T10:23:15.300Z,69.90
2022-08-17T10:26:12.818Z,69.80
2022-08-17T10:28:42.976Z,69.70
2022-08-17T10:31:34.137Z,69.40
2022-08-17T10:34:07.448Z,68.30
2022-08-17T10:37:06.805Z,67.30
2022-08-17T10:39:36.538Z,67.20
2022-08-17T10:42:30.822Z,67.60
2022-08-17T10:45:15.417Z,66.30
2022-08-17T10:47:56.055Z,65.90
2022-08-17T10:50:57.826Z,66.00
2022-08-17T10:53:37.712Z,65.60
2022-08-17T10:56:13.295Z,65.70
2022-08-17T10:58:47.540Z,65.30
2022-08-17T11:01:14.574Z,65.60
2022-08-17T11:03:54.866Z,65.70
2022-08-17T11:06:44.849Z,66.30
2022-08-17T11:09:49.722Z,66.80
2022-08-17T11:12:49.041Z,66.80
2022-08-17T11:15:42.923Z,67.80
2022-08-17T11:18:38.987Z,68.20
2022-08-17T11:21:23.970Z,68.30
2022-08-17T11:24:06.120Z,68.00
2022-08-17T11:26:34.553Z,68.40
2022-08-17T11:29:09.656Z,68.80
2022-08-17T11:31:41.361Z,70.00
2022-08-17T11:34:22.263Z,70.70
2022-08-17T11:37:07.905Z,71.30
2022-08-17T11:39:51.117Z,71.70
2022-08-17T11:42:25.504Z,72.90
2022-08-17T11:45:32.123Z,73.50
2022-08-17T11:48:33.939Z,75.50
2022-08-17T11:51:31.236Z,76.50
2022-08-17T11:54:32.209Z,77.80
2022-08-17T11:57:21.435Z,79.90
2022-08-17T11:59:48.257Z,81.10
2022-08-17T12:02:31.446Z,82.10
2022-08-17T12:05:14.514Z,83.40
2022-08-17T12:08:07.956Z,85.00
2022-08-17T12:10:39.786Z,85.80
2022-08-17T12:13:18.922Z,86.20
2022-08-17T12:15:50.380Z,87.00
2022-08-17T12:18:37.549Z,87.20
2022-08-17T12:21:22.796Z,87.90
2022-08-17T12:24:14.520Z,89.00
2022-08-17T12:26:44.058Z,89.20
2022-08-17T12:29:38.893Z,89.30
2022-08-17T12:32:07.071Z,89.10
2022-08-17T12:34:40.892Z,88.50
2022-08-17T12:37:21.148Z,88.60
2022-08-17T12:39:55.027Z,87.70
2022-08-17T12:42:26.842Z,87.80
2022-08-17T12:44:53.759Z,88.40
2022-08-17T12:47:22.709Z,88.10
2022-08-17T12:49:52.862Z,87.80
2022-08-17T12:52:19.715Z,87.50
2022-08-17T12:55:01.869Z,87.40
2022-08-17T12:57:46.068Z,86.90
2022-08-17T13:00:17.780Z,86.90
2022-08-17T13:02:52.084Z,86.50
2022-08-17T13:05:28.872Z,86.00
2022-08-17T13:07:58.467Z,85.00
2022-08-17T13:10:33.250Z,83.90
2022-08-17T13:13:21.126Z,82.20
2022-08-17T13:15:57.847Z,80.90
2022-08-17T13:18:38.996Z,81.90
2022-08-17T13:21:33.950Z,80.90
2022-08-17T13:24:07.966Z,80.70
2022-08-17T13:26:37.135Z,81.30
2022-08-17T13:29:08.850Z,82.20
2022-08-17T13:31:52.379Z,82.10
2022-08-17T13:34:29.117Z,82.10
2022-08-17T13:37:28.823Z,82.40
2022-08-17T13:40:10.306Z,82.90
2022-08-17T13:42:53.101Z,82.80
2022-08-17T13:45:39.526Z,83.50
2022-08-17T13:48:13.880Z,84.40
2022-08-17T13:50:49.608Z,84.10
2022-08-17T13:53:23.671Z,83.80
2022-08-17T13:55:55.317Z,84.30
2022-08-17T13:58:35.458Z,84.20
2022-08-17T14:01:28.280Z,84.10
2022-08-17T14:03:56.164Z,83.30
2022-08-17T14:06:52.134Z,82.50
2022-08-17T14:09:13.574Z,83.30
2022-08-17T14:11:41.289Z,81.60
2022-08-17T14:14:08.196Z,81.70
2022-08-17T14:16:35.150Z,82.00
2022-08-17T14:19:02.143Z,82.30
2022-08-17T14:21:28.979Z,81.70
2022-08-17T14:23:55.848Z,81.60
2022-08-17T14:26:23.405Z,81.90
2022-08-17T14:28:56.271Z,83.00
2022-08-17T14:31:24.083Z,84.20
2022-08-17T14:33:52.058Z,85.90
2022-08-17T14:36:19.025Z,86.90
2022-08-17T14:38:45.869Z,87.00
2022-08-17T14:41:12.995Z,85.80
2022-08-17T14:43:39.948Z,85.10
2022-08-17T14:46:06.969Z,84.80
2022-08-17T14:48:35.791Z,83.20
2022-08-17T14:51:04.828Z,82.70
2022-08-17T14:53:31.861Z,81.60
2022-08-17T14:55:58.893Z,78.50
2022-08-17T14:58:26.048Z,77.50
2022-08-17T15:00:53.363Z,77.40
2022-08-17T15:03:20.249Z,77.10
2022-08-17T15:05:47.287Z,77.80
2022-08-17T15:08:16.582Z,78.50
2022-08-17T15:10:44.913Z,78.70
2022-08-17T15:13:23.166Z,79.50
2022-08-17T15:15:50.948Z,79.60
2022-08-17T15:18:18.662Z,79.40
2022-08-17T15:20:48.621Z,79.70
2022-08-17T15:23:18.765Z,79.40
2022-08-17T15:25:47.665Z,79.10
2022-08-17T15:28:15.429Z,78.40
2022-08-17T15:30:44.835Z,78.30
2022-08-17T15:33:20.189Z,78.30
2022-08-17T15:35:51.373Z,78.10
2022-08-17T15:38:18.546Z,77.30
2022-08-17T15:40:50.509Z,77.00
2022-08-17T15:43:27.903Z,77.20
2022-08-17T15:46:12.205Z,77.60
2022-08-17T15:48:44.688Z,76.80
2022-08-17T15:51:27.982Z,77.00
2022-08-17T15:53:58.464Z,77.20
2022-08-17T15:56:26.633Z,77.60
2022-08-17T15:58:55.272Z,78.20
2022-08-17T16:01:57.402Z,78.20
2022-08-17T16:04:30.085Z,78.70
2022-08-17T16:06:58.870Z,79.20
2022-08-17T16:09:25.884Z,79.90
2022-08-17T16:11:55.595Z,80.70
2022-08-17T16:14:33.956Z,81.50
2022-08-17T16:17:03.631Z,82.80
2022-08-17T16:19:31.114Z,82.30
2022-08-17T16:21:58.006Z,82.50
2022-08-17T16:24:25.054Z,81.90
2022-08-17T16:26:51.884Z,82.20
2022-08-17T16:29:18.847Z,82.30
2022-08-17T16:31:45.894Z,82.70
2022-08-17T16:34:17.945Z,82.70
2022-08-17T16:36:54.602Z,82.50
2022-08-17T16:39:29.479Z,82.80
2022-08-17T16:41:57.333Z,83.10
2022-08-17T16:44:25.866Z,83.50
2022-08-17T16:46:53.405Z,83.80
2022-08-17T16:49:35.612Z,84.20
2022-08-17T16:52:11.881Z,84.20
2022-08-17T16:54:43.651Z,84.30
2022-08-17T16:57:12.196Z,84.70
2022-08-17T16:59:42.742Z,84.70
2022-08-17T17:02:13.436Z,84.80
2022-08-17T17:08:30.841Z,84.00
2022-08-17T17:11:03.872Z,84.30
2022-08-17T17:14:12.251Z,85.00
2022-08-17T17:16:45.775Z,85.40
2022-08-17T17:19:18.007Z,85.70
2022-08-17T17:22:30.365Z,85.70
2022-08-17T17:25:06.828Z,85.80
2022-08-17T17:27:53.020Z,85.80
2022-08-17T17:30:55.458Z,85.50
2022-08-17T17:33:53.624Z,85.40
2022-08-17T17:36:25.338Z,85.30
2022-08-17T17:39:05.840Z,84.60
2022-08-17T17:41:54.903Z,84.60
2022-08-17T17:44:30.080Z,84.30
2022-08-17T17:47:02.362Z,83.40
2022-08-17T17:49:38.602Z,82.60
2022-08-17T17:52:28.430Z,82.10
2022-08-17T17:55:10.636Z,80.80
2022-08-17T17:58:09.685Z,81.60
2022-08-17T18:00:58.860Z,82.20
2022-08-17T18:03:50.847Z,82.90
2022-08-17T18:06:48.533Z,82.30
2022-08-17T18:09:44.302Z,83.00
2022-08-17T18:12:28.944Z,83.80
2022-08-17T18:15:32.006Z,83.80
2022-08-17T18:18:14.338Z,84.40
2022-08-17T18:20:53.852Z,84.80
2022-08-17T18:23:28.096Z,85.30
2022-08-17T18:25:56.398Z,85.80
2022-08-17T18:28:32.069Z,86.80
2022-08-17T18:31:19.012Z,88.20
2022-08-17T18:33:49.140Z,88.90
2022-08-17T18:36:36.400Z,89.80
2022-08-17T18:39:12.236Z,90.10
2022-08-17T18:41:44.659Z,90.40
2022-08-17T18:44:23.552Z,90.70
2022-08-17T18:47:08.817Z,90.80
2022-08-17T18:49:36.269Z,90.80
2022-08-17T18:52:22.627Z,90.70
2022-08-17T18:55:14.247Z,90.90
2022-08-17T18:57:50.847Z,91.00
2022-08-17T19:00:35.608Z,91.40
2022-08-17T19:03:18.412Z,91.70
2022-08-17T19:06:14.170Z,91.80
2022-08-17T19:08:41.656Z,92.10
2022-08-17T19:11:26.157Z,92.30
2022-08-17T19:13:57.805Z,92.50
2022-08-17T19:16:32.939Z,92.90
2022-08-17T19:19:31.295Z,92.90
2022-08-17T19:22:11.725Z,93.10
2022-08-17T19:24:47.553Z,93.10
2022-08-17T19:27:41.809Z,93.30
2022-08-17T19:30:13.671Z,93.40
2022-08-17T19:32:40.993Z,93.40
2022-08-17T19:35:16.578Z,93.60
2022-08-17T19:38:02.737Z,93.70
2022-08-17T19:41:12.091Z,93.70
2022-08-17T19:44:05.736Z,93.70
2022-08-17T19:46:49.897Z,93.70
2022-08-17T19:49:52.462Z,93.50
2022-08-17T19:52:43.159Z,93.80
2022-08-17T19:55:43.800Z,93.70
2022-08-17T19:58:22.432Z,93.70
2022-08-17T20:00:52.812Z,93.80
2022-08-17T20:03:34.975Z,93.70
2022-08-17T20:06:12.929Z,93.80
2022-08-17T20:09:14.786Z,93.80
2022-08-17T20:11:47.152Z,93.70
2022-08-17T20:14:24.488Z,93.70
2022-08-17T20:16:51.633Z,93.70
2022-08-17T20:19:36.147Z,93.80
2022-08-17T20:22:14.199Z,93.80
2022-08-17T20:24:41.447Z,93.70
2022-08-17T20:27:31.714Z,93.70
2022-08-17T20:30:08.015Z,93.60
2022-08-17T20:32:55.482Z,93.70
2022-08-17T20:35:31.754Z,93.70
2022-08-17T20:38:02.570Z,93.90
2022-08-17T20:40:34.366Z,93.90
2022-08-17T20:43:43.272Z,94.00
2022-08-17T20:46:20.175Z,94.00
2022-08-17T20:48:52.670Z,94.20
2022-08-17T20:51:38.572Z,94.20
2022-08-17T20:54:27.352Z,95.00
2022-08-17T20:56:57.766Z,95.00
2022-08-17T20:59:28.558Z,95.00
2022-08-17T21:02:26.283Z,95.00
2022-08-17T21:04:54.523Z,95.00
2022-08-17T21:07:50.689Z,95.20
2022-08-17T21:10:23.772Z,95.20
2022-08-17T21:13:08.225Z,95.30
2022-08-17T21:15:49.565Z,95.30
2022-08-17T21:18:38.967Z,95.60
2022-08-17T21:21:43.747Z,95.80
2022-08-17T21:24:51.352Z,96.10
2022-08-17T21:27:23.578Z,96.20
2022-08-17T21:30:14.218Z,96.20
2022-08-17T21:32:44.467Z,96.10
2022-08-17T21:35:11.431Z,96.30
2022-08-17T21:37:48.422Z,96.30
2022-08-17T21:40:18.383Z,96.30
2022-08-17T21:42:49.052Z,96.20
2022-08-17T21:45:21.944Z,96.40
2022-08-17T21:48:19.880Z,96.30
2022-08-17T21:51:10.281Z,96.40
2022-08-17T21:54:00.391Z,96.50
2022-08-17T21:56:34.201Z,96.60
2022-08-17T21:59:27.329Z,96.70
2022-08-17T22:01:57.752Z,96.80
2022-08-17T22:04:27.119Z,96.90
2022-08-17T22:06:57.046Z,96.90
2022-08-17T22:09:43.551Z,96.80
2022-08-17T22:12:15.339Z,97.40
2022-08-17T22:15:07.344Z,97.20
2022-08-17T22:17:38.005Z,97.30
2022-08-17T22:20:17.684Z,97.20
2022-08-17T22:23:09.071Z,97.20
2022-08-17T22:25:39.735Z,97.60
2022-08-17T22:28:12.130Z,97.70
2022-08-17T22:30:41.934Z,97.90
2022-08-17T22:33:31.361Z,98.00
2022-08-17T22:36:23.105Z,98.10
2022-08-17T22:38:51.999Z,98.30
2022-08-17T22:41:34.483Z,98.20
2022-08-17T22:44:20.075Z,98.10
2022-08-17T22:46:50.216Z,98.30
2022-08-17T22:49:29.961Z,98.20
2022-08-17T22:52:06.649Z,98.30
2022-08-17T22:54:52.470Z,98.30
2022-08-17T22:57:40.889Z,98.60
2022-08-17T23:00:36.279Z,98.40
2022-08-17T23:03:14.115Z,98.40
2022-08-17T23:05:45.755Z,98.40
2022-08-17T23:08:14.091Z,98.40
2022-08-17T23:10:41.965Z,98.30
2022-08-17T23:13:11.939Z,98.30
2022-08-17T23:15:40.636Z,98.30
2022-08-17T23:18:08.109Z,98.20
2022-08-17T23:20:37.598Z,98.30
2022-08-17T23:23:06.863Z,98.30
2022-08-17T23:25:35.168Z,98.50
2022-08-17T23:28:05.052Z,98.50
2022-08-17T23:30:37.430Z,98.50
2022-08-17T23:33:07.715Z,98.50
2022-08-17T23:35:39.806Z,98.60
2022-08-17T23:38:09.744Z,98.50
2022-08-17T23:40:39.242Z,98.40
2022-08-17T23:43:24.425Z,98.30
2022-08-17T23:45:54.349Z,98.80
2022-08-17T23:48:35.173Z,98.80
2022-08-17T23:51:30.012Z,98.60
2022-08-17T23:54:05.810Z,98.80
2022-08-17T23:56:40.139Z,98.80
2022-08-17T23:59:07.028Z,98.80
